Time;durP1;ratioP1;P1;durP2;ratioP2;P2;SDS_P1;SDS_P2;PMS_P1;PMS_P2;Temp;Humidity;BMP_temperature;BMP_pressure;BME280_temperature;BME280_humidity;BME280_pressure;Samples;Min_cycle;Max_cycle;Signal;HPM_P1;HPM_P2
2023/04/16 00:00:57;;;;;;;;;;;;;;;18.58;56.98;97833.38;2085844;28;20575;-48
2023/04/16 00:02:00;;;;;;;;;;;;;;;18.59;56.77;97832.34;2078777;28;20279;-48
2023/04/16 00:03:00;;;;;;;;;;;;;;;18.59;56.98;97833.19;2081591;28;19932;-46
2023/04/16 00:04:02;;;;;;;;;;;;;;;18.59;56.85;97833.19;2079355;28;19925;-46
2023/04/16 00:05:02;;;;;;;;;;;;;;;18.56;57.05;97835.50;2081082;28;20110;-47
2023/04/16 00:06:04;;;;;;;;;;;;;;;18.59;56.99;97835.03;2084405;28;19947;-47
2023/04/16 00:07:05;;;;;;;;;;;;;;;18.57;56.57;97832.56;2081259;28;19989;-46
2023/04/16 00:08:06;;;;;;;;;;;;;;;18.56;56.78;97839.00;2080786;28;20052;-48
2023/04/16 00:09:06;;;;;;;;;;;;;;;18.56;56.81;97839.00;2082241;28;20348;-48
2023/04/16 00:10:08;;;;;;;;;;;;;;;18.57;56.74;97829.06;2081426;28;19932;-49
2023/04/16 00:11:09;;;;;;;;;;;;;;;18.56;56.71;97832.81;2080280;28;19970;-48
2023/04/16 00:12:10;;;;;;;;;;;;;;;18.54;56.83;97836.50;2082103;28;20329;-48
2023/04/16 00:13:11;;;;;;;;;;;;;;;18.53;56.73;97832.19;2077717;28;19965;-49
2023/04/16 00:14:12;;;;;;;;;;;;;;;18.54;57.15;97831.16;2080679;28;19929;-45
2023/04/16 00:15:13;;;;;;;;;;;;;;;18.52;56.87;97827.84;2080334;28;20349;-46
2023/04/16 00:16:14;;;;;;;;;;;;;;;18.51;56.92;97831.59;2081441;28;19933;-47
2023/04/16 00:17:16;;;;;;;;;;;;;;;18.50;56.89;97831.84;2081493;28;19925;-47
2023/04/16 00:18:19;;;;;;;;;;;;;;;18.51;56.85;97822.72;2079331;28;20018;-46
2023/04/16 00:19:19;;;;;;;;;;;;;;;18.50;56.97;97824.59;2079353;28;19940;-48
2023/04/16 00:20:21;;;;;;;;;;;;;;;18.48;57.01;97826.66;2083573;28;19964;-48
2023/04/16 00:21:21;;;;;;;;;;;;;;;18.50;56.88;97824.59;2082008;27;19932;-47
2023/04/16 00:22:23;;;;;;;;;;;;;;;18.50;57.02;97827.28;2081206;28;20297;-47
2023/04/16 00:23:24;;;;;;;;;;;;;;;18.48;56.86;97823.16;2081840;28;20053;-46
2023/04/16 00:24:25;;;;;;;;;;;;;;;18.47;56.95;97826.88;2079977;28;20102;-48
2023/04/16 00:25:26;;;;;;;;;;;;;;;18.48;56.81;97826.66;2079484;28;20886;-48
2023/04/16 00:26:27;;;;;;;;;;;;;;;18.47;56.95;97826.88;2082606;28;19970;-47
2023/04/16 00:27:28;;;;;;;;;;;;;;;18.45;56.89;97821.75;2080017;28;20344;-45
2023/04/16 00:28:29;;;;;;;;;;;;;;;18.46;56.93;97818.00;2081022;28;20050;-50
2023/04/16 00:29:30;;;;;;;;;;;;;;;18.44;56.71;97821.97;2079414;28;22391;-47
2023/04/16 00:30:31;;;;;;;;;;;;;;;18.44;56.99;97822.81;2080178;28;19974;-48
2023/04/16 00:31:33;;;;;;;;;;;;;;;18.46;56.99;97822.56;2081622;28;19933;-49
2023/04/16 00:32:35;;;;;;;;;;;;;;;18.46;56.65;97818.00;2080845;28;19924;-49
2023/04/16 00:33:36;;;;;;;;;;;;;;;18.43;56.80;97821.13;2083265;28;19981;-47
2023/04/16 00:34:37;;;;;;;;;;;;;;;18.46;56.97;97817.19;2079032;28;20400;-47
2023/04/16 00:35:38;;;;;;;;;;;;;;;18.44;56.85;97820.13;2079720;28;19970;-47
2023/04/16 00:36:39;;;;;;;;;;;;;;;18.43;56.79;97813.09;2082891;28;19936;-46
2023/04/16 00:37:40;;;;;;;;;;;;;;;18.44;56.95;97822.81;2081714;28;19928;-48
2023/04/16 00:38:41;;;;;;;;;;;;;;;18.41;56.97;97815.16;2079323;28;19959;-48
2023/04/16 00:39:42;;;;;;;;;;;;;;;18.42;56.96;97821.38;2078982;28;20010;-46
2023/04/16 00:40:43;;;;;;;;;;;;;;;18.43;56.63;97823.81;2083246;28;20345;-50
2023/04/16 00:41:44;;;;;;;;;;;;;;;18.42;56.76;97821.38;2081991;28;19928;-46
2023/04/16 00:42:45;;;;;;;;;;;;;;;18.40;56.55;97815.41;2077302;28;21071;-47
2023/04/16 00:43:45;;;;;;;;;;;;;;;18.40;57.03;97810.84;2077598;28;19928;-46
2023/04/16 00:44:47;;;;;;;;;;;;;;;18.41;56.91;97812.47;2081950;28;19966;-47
2023/04/16 00:45:47;;;;;;;;;;;;;;;18.40;56.86;97813.53;2081344;28;20072;-47
2023/04/16 00:46:49;;;;;;;;;;;;;;;18.41;56.89;97825.91;2084447;28;20456;-47
2023/04/16 00:47:51;;;;;;;;;;;;;;;18.38;56.85;97812.94;2080819;28;19935;-47
2023/04/16 00:48:54;;;;;;;;;;;;;;;18.39;56.90;97814.59;2079936;28;19939;-46
2023/04/16 00:49:54;;;;;;;;;;;;;;;18.37;56.76;97813.16;2080841;28;19929;-49
2023/04/16 00:50:55;;;;;;;;;;;;;;;18.38;56.75;97820.97;2081308;28;19929;-47
2023/04/16 00:51:56;;;;;;;;;;;;;;;18.38;56.88;97818.28;2078506;28;19928;-47
2023/04/16 00:52:58;;;;;;;;;;;;;;;18.38;56.59;97812.13;2085683;28;20635;-46
2023/04/16 00:53:58;;;;;;;;;;;;;;;18.36;56.71;97812.34;2080946;28;19964;-46
2023/04/16 00:55:00;;;;;;;;;;;;;;;18.36;56.74;97815.03;2082237;28;19951;-45
2023/04/16 00:56:01;;;;;;;;;;;;;;;18.36;56.69;97820.41;2085034;28;19986;-46
2023/04/16 00:57:02;;;;;;;;;;;;;;;18.35;56.70;97818.75;2088364;28;19924;-48
2023/04/16 00:58:03;;;;;;;;;;;;;;;18.36;56.86;97822.25;2087560;28;19954;-46
2023/04/16 00:59:05;;;;;;;;;;;;;;;18.36;56.82;97823.09;2085538;28;19955;-47
2023/04/16 01:00:06;;;;;;;;;;;;;;;18.34;56.74;97822.47;2088686;28;20383;-47
2023/04/16 01:01:07;;;;;;;;;;;;;;;18.34;56.83;97818.97;2088504;28;20024;-47
2023/04/16 01:02:08;;;;;;;;;;;;;;;18.32;56.59;97813.81;2086661;28;20436;-47
2023/04/16 01:03:11;;;;;;;;;;;;;;;18.33;56.72;97818.16;2087957;28;19974;-49
2023/04/16 01:04:11;;;;;;;;;;;;;;;18.33;56.62;97811.94;2089574;28;19928;-46
2023/04/16 01:05:13;;;;;;;;;;;;;;;18.31;56.90;97815.69;2087037;28;19978;-47
2023/04/16 01:06:13;;;;;;;;;;;;;;;18.30;56.90;97808.69;2084421;28;19925;-48
2023/04/16 01:07:15;;;;;;;;;;;;;;;18.30;56.82;97807.84;2087208;28;19925;-46
2023/04/16 01:08:16;;;;;;;;;;;;;;;18.30;56.65;97807.84;2087634;28;19981;-48
2023/04/16 01:09:18;;;;;;;;;;;;;;;18.30;56.69;97811.38;2088047;28;19932;-46
2023/04/16 01:10:18;;;;;;;;;;;;;;;18.31;56.84;97809.50;2088511;28;19937;-49
2023/04/16 01:11:19;;;;;;;;;;;;;;;18.29;56.78;97817.75;2088366;28;22854;-47
2023/04/16 01:12:20;;;;;;;;;;;;;;;18.28;56.45;97808.09;2086678;28;19936;-48
2023/04/16 01:13:21;;;;;;;;;;;;;;;18.28;56.71;97800.03;2086011;28;20394;-47
2023/04/16 01:14:22;;;;;;;;;;;;;;;18.28;56.66;97796.53;2087894;28;19961;-46
2023/04/16 01:15:23;;;;;;;;;;;;;;;18.28;56.63;97794.66;2089312;28;20029;-45
2023/04/16 01:16:25;;;;;;;;;;;;;;;18.28;56.66;97794.66;2086396;28;19936;-46
2023/04/16 01:17:26;;;;;;;;;;;;;;;18.29;56.45;97793.59;2087307;28;19924;-46
2023/04/16 01:18:28;;;;;;;;;;;;;;;18.28;56.66;97800.03;2085594;28;19929;-46
2023/04/16 01:19:30;;;;;;;;;;;;;;;18.29;56.47;97795.47;2084728;28;19925;-46
2023/04/16 01:20:35;;;;;;;;;;;;;;;18.28;56.68;97794.66;2085686;28;19928;-49
2023/04/16 01:21:36;;;;;;;;;;;;;;;18.28;56.57;97789.28;2086655;28;19932;-47
2023/04/16 01:22:36;;;;;;;;;;;;;;;18.27;56.79;97795.69;2086293;28;19969;-45
2023/04/16 01:23:38;;;;;;;;;;;;;;;18.27;56.64;97795.69;2085740;28;19942;-48
2023/04/16 01:24:39;;;;;;;;;;;;;;;18.25;56.74;97796.97;2087562;28;19932;-45
2023/04/16 01:25:40;;;;;;;;;;;;;;;18.25;56.63;97791.59;2086836;28;20405;-48
2023/04/16 01:26:41;;;;;;;;;;;;;;;18.23;56.62;97794.50;2086822;28;20103;-48
2023/04/16 01:27:42;;;;;;;;;;;;;;;18.25;56.72;97799.66;2084896;28;20371;-47
2023/04/16 01:28:43;;;;;;;;;;;;;;;18.23;56.47;97789.13;2088685;28;19929;-49
2023/04/16 01:29:44;;;;;;;;;;;;;;;18.21;56.80;97793.06;2086915;28;19928;-47
2023/04/16 01:30:45;;;;;;;;;;;;;;;18.22;56.80;97789.34;2088639;28;19977;-48
2023/04/16 01:31:46;;;;;;;;;;;;;;;18.22;56.64;97797.38;2085562;28;19979;-47
2023/04/16 01:32:46;;;;;;;;;;;;;;;18.22;56.69;97792.88;2086903;28;20016;-48
2023/04/16 01:33:48;;;;;;;;;;;;;;;18.24;56.37;97796.13;2083978;28;19932;-48
2023/04/16 01:34:48;;;;;;;;;;;;;;;18.21;56.59;97801.13;2087882;28;19936;-48
2023/04/16 01:35:51;;;;;;;;;;;;;;;18.21;56.69;97799.25;2085892;28;19933;-46
2023/04/16 01:36:52;;;;;;;;;;;;;;;18.21;56.55;97799.25;2086405;28;19924;-45
2023/04/16 01:37:53;;;;;;;;;;;;;;;18.19;56.30;97798.69;2086479;28;19975;-45
2023/04/16 01:38:54;;;;;;;;;;;;;;;18.20;56.48;97808.38;2086999;28;19925;-47
2023/04/16 01:39:55;;;;;;;;;;;;;;;18.20;56.42;97803.00;2082701;28;20255;-48
2023/04/16 01:40:56;;;;;;;;;;;;;;;18.21;56.50;97810.00;2080718;28;19929;-46
2023/04/16 01:41:57;;;;;;;;;;;;;;;18.19;56.73;97816.63;2081788;28;20479;-48
2023/04/16 01:42:58;;;;;;;;;;;;;;;18.20;56.30;97812.91;2080358;28;19982;-47
2023/04/16 01:43:59;;;;;;;;;;;;;;;18.19;56.39;97814.78;2079769;28;20002;-47
2023/04/16 01:45:00;;;;;;;;;;;;;;;18.19;56.65;97811.25;2079920;28;20001;-49
2023/04/16 01:46:12;;;;;;;;;;;;;;;18.18;56.56;97815.81;2079837;28;20487;-47
2023/04/16 01:47:12;;;;;;;;;;;;;;;18.17;56.58;97824.91;2083269;28;19924;-45
2023/04/16 01:48:13;;;;;;;;;;;;;;;18.16;56.49;97822.44;2079127;28;19985;-47
2023/04/16 01:49:14;;;;;;;;;;;;;;;18.16;56.65;97817.88;2081614;28;19924;-46
2023/04/16 01:50:16;;;;;;;;;;;;;;;18.16;56.55;97817.88;2085174;28;20054;-47
2023/04/16 01:51:18;;;;;;;;;;;;;;;18.16;56.69;97815.19;2085376;28;19925;-49
2023/04/16 01:52:20;;;;;;;;;;;;;;;18.16;56.58;97811.69;2086896;28;19928;-46
2023/04/16 01:53:20;;;;;;;;;;;;;;;18.15;56.70;97810.06;2086761;28;20439;-46
2023/04/16 01:54:21;;;;;;;;;;;;;;;18.15;56.53;97815.44;2082974;28;20002;-46
2023/04/16 01:55:22;;;;;;;;;;;;;;;18.14;56.45;97813.81;2083555;28;20005;-47
2023/04/16 01:56:23;;;;;;;;;;;;;;;18.14;56.46;97814.63;2081137;28;19940;-46
2023/04/16 01:57:24;;;;;;;;;;;;;;;18.15;56.30;97813.56;2080314;28;19932;-46
2023/04/16 01:58:27;;;;;;;;;;;;;;;18.15;56.50;97823.50;2080103;28;20006;-46
2023/04/16 01:59:28;;;;;;;;;;;;;;;18.14;56.60;97813.81;2081983;28;19971;-48
2023/04/16 02:00:29;;;;;;;;;;;;;;;18.12;56.57;97816.69;2083161;28;19925;-46
2023/04/16 02:01:30;;;;;;;;;;;;;;;18.14;56.40;97819.16;2079358;28;19978;-48
2023/04/16 02:02:31;;;;;;;;;;;;;;;18.13;56.44;97825.56;2081604;28;20006;-45
2023/04/16 02:03:32;;;;;;;;;;;;;;;18.13;56.43;97820.19;2081328;28;20014;-46
2023/04/16 02:04:33;;;;;;;;;;;;;;;18.10;56.49;97816.09;2071579;28;19932;-45
2023/04/16 02:05:34;;;;;;;;;;;;;;;18.08;56.45;97819.00;2079392;28;19928;-47
2023/04/16 02:06:36;;;;;;;;;;;;;;;18.11;56.51;97819.59;2082289;28;19935;-48
2023/04/16 02:07:37;;;;;;;;;;;;;;;18.07;56.44;97820.03;2079251;28;21174;-46
2023/04/16 02:08:38;;;;;;;;;;;;;;;18.08;56.66;97827.06;2080891;28;20017;-47
2023/04/16 02:09:39;;;;;;;;;;;;;;;18.09;56.49;97828.69;2081118;28;20436;-47
2023/04/16 02:10:41;;;;;;;;;;;;;;;18.08;56.58;97820.88;2081047;28;19937;-48
2023/04/16 02:11:41;;;;;;;;;;;;;;;18.07;56.45;97822.72;2080830;28;20056;-47
2023/04/16 02:12:43;;;;;;;;;;;;;;;18.08;56.36;97815.50;2082703;28;19974;-48
2023/04/16 02:13:43;;;;;;;;;;;;;;;18.06;56.41;97829.13;2087772;28;19928;-49
2023/04/16 02:14:44;;;;;;;;;;;;;;;18.06;56.51;97829.13;2082038;28;19979;-46
2023/04/16 02:15:46;;;;;;;;;;;;;;;18.07;56.69;97825.41;2080590;28;20360;-46
2023/04/16 02:16:47;;;;;;;;;;;;;;;18.07;56.54;97825.41;2080326;28;19928;-49
2023/04/16 02:17:49;;;;;;;;;;;;;;;18.05;56.43;97827.50;2083031;28;19925;-46
2023/04/16 02:18:51;;;;;;;;;;;;;;;18.06;56.40;97825.63;2081054;28;20799;-48
2023/04/16 02:19:51;;;;;;;;;;;;;;;18.04;56.56;97820.47;2082927;28;20132;-47
2023/04/16 02:20:53;;;;;;;;;;;;;;;18.04;56.57;97823.16;2078785;28;20407;-45
2023/04/16 02:21:55;;;;;;;;;;;;;;;18.06;56.55;97820.25;2082256;28;19940;-46
2023/04/16 02:22:56;;;;;;;;;;;;;;;18.06;56.42;97833.69;2078972;28;20413;-46
2023/04/16 02:23:56;;;;;;;;;;;;;;;18.05;56.50;97826.66;2080216;28;19932;-48
2023/04/16 02:24:58;;;;;;;;;;;;;;;18.05;56.53;97823.97;2082187;28;19932;-47
2023/04/16 02:25:59;;;;;;;;;;;;;;;18.04;56.42;97825.84;2086809;28;19985;-47
2023/04/16 02:27:01;;;;;;;;;;;;;;;18.03;56.33;97832.25;2080422;28;19936;-48
2023/04/16 02:28:01;;;;;;;;;;;;;;;18.01;56.32;97826.28;2083105;28;19928;-46
2023/04/16 02:29:03;;;;;;;;;;;;;;;18.01;56.40;97834.31;2079325;28;19972;-47
2023/04/16 02:30:04;;;;;;;;;;;;;;;18.02;56.34;97832.47;2079974;28;19935;-45
2023/04/16 02:31:05;;;;;;;;;;;;;;;18.02;56.54;97835.13;2081669;28;19933;-46
2023/04/16 02:32:06;;;;;;;;;;;;;;;18.00;56.37;97830.00;2081144;28;19939;-47
2023/04/16 02:33:09;;;;;;;;;;;;;;;18.01;56.44;97833.50;2079357;28;20428;-47
2023/04/16 02:34:09;;;;;;;;;;;;;;;18.00;56.61;97829.19;2081901;28;20012;-46
2023/04/16 02:35:11;;;;;;;;;;;;;;;18.01;56.34;97842.38;2077669;28;19935;-47
2023/04/16 02:36:11;;;;;;;;;;;;;;;18.00;56.42;97840.75;2084812;28;19974;-47
2023/04/16 02:37:15;;;;;;;;;;;;;;;18.00;56.35;97842.63;2082683;28;20237;-48
2023/04/16 02:38:15;;;;;;;;;;;;;;;18.00;56.36;97845.28;2079742;28;19932;-47
2023/04/16 02:39:17;;;;;;;;;;;;;;;18.00;56.25;97832.69;2081977;28;19924;-46
2023/04/16 02:40:17;;;;;;;;;;;;;;;17.99;56.30;97839.09;2082851;28;19928;-48
2023/04/16 02:41:19;;;;;;;;;;;;;;;17.98;56.56;97834.75;2082118;28;19931;-49
2023/04/16 02:42:19;;;;;;;;;;;;;;;18.00;56.40;97842.63;2083201;28;21244;-48
2023/04/16 02:43:21;;;;;;;;;;;;;;;18.00;56.54;97840.75;2080419;28;20019;-46
2023/04/16 02:44:21;;;;;;;;;;;;;;;17.99;56.36;97844.44;2082645;28;20190;-49
2023/04/16 02:45:23;;;;;;;;;;;;;;;17.99;56.32;97844.44;2082302;28;19932;-45
2023/04/16 02:46:23;;;;;;;;;;;;;;;17.96;56.38;97836.84;2081237;28;19982;-45
2023/04/16 02:47:24;;;;;;;;;;;;;;;17.97;56.35;97845.69;2082694;28;20351;-45
2023/04/16 02:48:25;;;;;;;;;;;;;;;17.96;56.47;97839.53;2081947;28;19932;-47
2023/04/16 02:49:26;;;;;;;;;;;;;;;17.96;56.51;97834.16;2079976;28;19928;-48
2023/04/16 02:50:27;;;;;;;;;;;;;;;17.95;56.37;97840.56;2081542;28;20489;-45
2023/04/16 02:51:28;;;;;;;;;;;;;;;17.95;56.49;97847.81;2083004;28;19925;-46
2023/04/16 02:52:31;;;;;;;;;;;;;;;17.93;56.54;97839.16;2081128;28;19924;-45
2023/04/16 02:53:33;;;;;;;;;;;;;;;17.93;56.50;97839.97;2078931;28;20881;-45
2023/04/16 02:54:33;;;;;;;;;;;;;;;17.94;56.37;97847.00;2079101;28;20341;-46
2023/04/16 02:55:34;;;;;;;;;;;;;;;17.93;56.48;97845.31;2080567;28;19924;-49
2023/04/16 02:56:35;;;;;;;;;;;;;;;17.93;56.42;97844.50;2085047;28;19929;-47
2023/04/16 02:57:36;;;;;;;;;;;;;;;17.92;56.69;97857.09;2085834;28;19929;-48
2023/04/16 02:58:37;;;;;;;;;;;;;;;17.93;56.60;97858.75;2087660;28;19932;-47
2023/04/16 02:59:38;;;;;;;;;;;;;;;17.93;56.42;97852.56;2087220;28;19958;-46
2023/04/16 03:00:38;;;;;;;;;;;;;;;17.92;56.64;97857.09;2086019;28;19932;-47
2023/04/16 03:01:40;;;;;;;;;;;;;;;17.91;56.48;97863.50;2085239;28;19950;-46
2023/04/16 03:02:41;;;;;;;;;;;;;;;17.91;56.33;97857.31;2085000;28;19929;-48
2023/04/16 03:03:42;;;;;;;;;;;;;;;17.90;56.51;97861.88;2086717;28;19987;-48
2023/04/16 03:04:43;;;;;;;;;;;;;;;17.90;56.36;97867.22;2087001;28;20338;-47
2023/04/16 03:05:45;;;;;;;;;;;;;;;17.89;56.55;97865.59;2087016;28;19924;-47
2023/04/16 03:06:45;;;;;;;;;;;;;;;17.90;56.35;97861.88;2088327;28;19980;-46
2023/04/16 03:07:49;;;;;;;;;;;;;;;17.93;56.42;97863.28;2088720;28;20322;-54
2023/04/16 03:08:50;;;;;;;;;;;;;;;17.92;56.56;97865.16;2086721;28;20401;-46
2023/04/16 03:09:51;;;;;;;;;;;;;;;17.92;56.28;97870.53;2088536;28;19928;-47
2023/04/16 03:10:51;;;;;;;;;;;;;;;17.91;56.25;97870.72;2088454;28;19928;-46
2023/04/16 03:11:53;;;;;;;;;;;;;;;17.89;56.47;97865.59;2089235;28;19974;-46
2023/04/16 03:12:53;;;;;;;;;;;;;;;17.91;56.48;97868.88;2086988;28;19928;-47
2023/04/16 03:13:55;;;;;;;;;;;;;;;17.89;56.47;97872.81;2089613;28;20749;-49
2023/04/16 03:14:55;;;;;;;;;;;;;;;17.88;56.47;97868.47;2088689;28;19929;-47
2023/04/16 03:15:57;;;;;;;;;;;;;;;17.88;56.38;97871.97;2087106;28;20683;-49
2023/04/16 03:16:57;;;;;;;;;;;;;;;17.88;56.51;97871.97;2085882;28;19929;-47
2023/04/16 03:17:59;;;;;;;;;;;;;;;17.86;56.34;97876.75;2090205;28;20337;-45
2023/04/16 03:19:00;;;;;;;;;;;;;;;17.86;56.43;97874.91;2089458;28;19933;-46
2023/04/16 03:20:01;;;;;;;;;;;;;;;17.88;56.42;97873.84;2089360;28;19932;-46
2023/04/16 03:21:02;;;;;;;;;;;;;;;17.87;56.47;97878.41;2089206;28;19993;-47
2023/04/16 03:22:03;;;;;;;;;;;;;;;17.87;56.29;97883.75;2087778;28;19937;-47
2023/04/16 03:23:05;;;;;;;;;;;;;;;17.86;56.30;97876.75;2086179;28;20080;-44
2023/04/16 03:24:06;;;;;;;;;;;;;;;17.86;56.70;97888.31;2086641;28;19929;-47
2023/04/16 03:25:07;;;;;;;;;;;;;;;17.87;56.51;97883.75;2087716;28;19928;-46
2023/04/16 03:26:09;;;;;;;;;;;;;;;17.86;56.40;97885.63;2086795;28;19932;-47
2023/04/16 03:27:09;;;;;;;;;;;;;;;17.86;56.56;97890.19;2084190;28;19933;-46
2023/04/16 03:28:11;;;;;;;;;;;;;;;17.86;56.48;97892.88;2086442;28;20303;-47
2023/04/16 03:29:11;;;;;;;;;;;;;;;17.85;56.36;97894.69;2085233;28;19924;-48
2023/04/16 03:30:13;;;;;;;;;;;;;;;17.85;56.21;97889.34;2083720;28;20006;-48
2023/04/16 03:31:13;;;;;;;;;;;;;;;17.86;56.39;97893.69;2085682;28;19933;-47
2023/04/16 03:32:16;;;;;;;;;;;;;;;17.83;56.46;97890.63;2088468;28;19990;-46
2023/04/16 03:33:16;;;;;;;;;;;;;;;17.84;56.32;97887.69;2083266;28;19958;-49
2023/04/16 03:34:17;;;;;;;;;;;;;;;17.84;56.50;97890.38;2085939;28;19932;-47
2023/04/16 03:35:18;;;;;;;;;;;;;;;17.84;56.31;97889.56;2083794;28;19936;-47
2023/04/16 03:36:19;;;;;;;;;;;;;;;17.83;56.40;97888.75;2081706;28;22320;-48
2023/04/16 03:37:20;;;;;;;;;;;;;;;17.82;56.37;97892.44;2087190;28;19932;-45
2023/04/16 03:38:23;;;;;;;;;;;;;;;17.82;56.39;97892.44;2089075;28;19924;-47
2023/04/16 03:39:24;;;;;;;;;;;;;;;17.83;56.33;97899.47;2086021;28;19997;-45
2023/04/16 03:40:25;;;;;;;;;;;;;;;17.80;56.53;97897.22;2082846;28;19932;-46
2023/04/16 03:41:26;;;;;;;;;;;;;;;17.79;56.30;97894.75;2082811;28;20298;-48
2023/04/16 03:42:27;;;;;;;;;;;;;;;17.83;56.48;97904.03;2083443;28;19928;-47
2023/04/16 03:43:27;;;;;;;;;;;;;;;17.80;56.42;97901.75;2083293;28;19934;-48
2023/04/16 03:44:29;;;;;;;;;;;;;;;17.79;56.36;97900.13;2080998;28;20387;-48
2023/04/16 03:45:29;;;;;;;;;;;;;;;17.78;56.42;97911.88;2082041;28;19928;-47
2023/04/16 03:46:31;;;;;;;;;;;;;;;17.79;56.33;97908.16;2082232;28;20023;-45
2023/04/16 03:47:31;;;;;;;;;;;;;;;17.81;56.41;97914.13;2082057;28;19935;-45
2023/04/16 03:48:33;;;;;;;;;;;;;;;17.81;56.41;97908.78;2081315;28;20045;-47
2023/04/16 03:49:33;;;;;;;;;;;;;;;17.81;56.50;97914.97;2083300;28;19925;-46
2023/04/16 03:50:35;;;;;;;;;;;;;;;17.81;56.36;97912.28;2082472;28;19971;-46
2023/04/16 03:51:35;;;;;;;;;;;;;;;17.81;56.22;97912.28;2078843;28;19928;-47
2023/04/16 03:52:37;;;;;;;;;;;;;;;17.80;56.41;97910.63;2081255;28;19978;-48
2023/04/16 03:53:39;;;;;;;;;;;;;;;17.80;56.21;97912.47;2082596;28;19928;-48
2023/04/16 03:54:40;;;;;;;;;;;;;;;17.77;56.50;97921.75;2078624;28;19932;-46
2023/04/16 03:55:41;;;;;;;;;;;;;;;17.78;56.31;97919.91;2086204;28;19933;-48
2023/04/16 03:56:42;;;;;;;;;;;;;;;17.79;56.32;97926.94;2083541;28;20033;-49
2023/04/16 03:57:43;;;;;;;;;;;;;;;17.78;56.27;97919.91;2082899;28;20256;-45
2023/04/16 03:58:44;;;;;;;;;;;;;;;17.78;56.42;97922.59;2084987;28;19974;-46
2023/04/16 03:59:45;;;;;;;;;;;;;;;17.77;56.17;97924.44;2082747;28;19971;-47
2023/04/16 04:00:46;;;;;;;;;;;;;;;17.76;56.30;97924.66;2083167;28;19936;-47
2023/04/16 04:01:47;;;;;;;;;;;;;;;17.79;56.32;97933.13;2081685;28;19937;-48
2023/04/16 04:02:48;;;;;;;;;;;;;;;17.77;56.26;97927.09;2080271;28;19933;-47
2023/04/16 04:03:48;;;;;;;;;;;;;;;17.77;56.23;97927.09;2082681;28;20352;-46
2023/04/16 04:04:50;;;;;;;;;;;;;;;17.78;56.31;97930.63;2083404;28;19933;-47
2023/04/16 04:05:50;;;;;;;;;;;;;;;17.75;56.33;97934.56;2082872;28;19989;-47
2023/04/16 04:06:52;;;;;;;;;;;;;;;17.76;56.23;97935.38;2084458;28;19998;-47
2023/04/16 04:07:52;;;;;;;;;;;;;;;17.76;56.19;97932.69;2081389;28;19925;-45
2023/04/16 04:08:55;;;;;;;;;;;;;;;17.76;56.41;97940.75;2082289;28;19925;-47
2023/04/16 04:09:55;;;;;;;;;;;;;;;17.75;56.29;97929.22;2083229;28;19929;-47
2023/04/16 04:10:57;;;;;;;;;;;;;;;17.75;56.31;97939.13;2083958;28;19929;-46
2023/04/16 04:11:57;;;;;;;;;;;;;;;17.76;56.36;97940.75;2082380;28;19928;-49
2023/04/16 04:12:59;;;;;;;;;;;;;;;17.76;56.24;97935.38;2083075;28;20344;-48
2023/04/16 04:13:59;;;;;;;;;;;;;;;17.76;56.19;97946.13;2086301;28;19970;-47
2023/04/16 04:15:01;;;;;;;;;;;;;;;17.72;56.53;97944.88;2080073;28;19978;-45
2023/04/16 04:16:01;;;;;;;;;;;;;;;17.71;56.35;97951.28;2082400;28;19932;-47
2023/04/16 04:17:03;;;;;;;;;;;;;;;17.73;56.44;97962.63;2084779;28;20054;-48
2023/04/16 04:18:03;;;;;;;;;;;;;;;17.72;56.30;97953.78;2082997;28;20368;-48
2023/04/16 04:19:04;;;;;;;;;;;;;;;17.72;56.32;97951.09;2088241;28;19933;-47
2023/04/16 04:20:05;;;;;;;;;;;;;;;17.73;56.39;97959.97;2085359;28;20547;-47
2023/04/16 04:21:07;;;;;;;;;;;;;;;17.72;56.39;97959.13;2089032;28;19939;-47
2023/04/16 04:22:08;;;;;;;;;;;;;;;17.72;56.45;97960.97;2086971;28;20460;-46
2023/04/16 04:23:09;;;;;;;;;;;;;;;17.74;56.51;97966.97;2087320;28;20006;-48
2023/04/16 04:24:11;;;;;;;;;;;;;;;17.71;56.52;97964.72;2087239;28;20011;-45
2023/04/16 04:25:13;;;;;;;;;;;;;;;17.71;56.36;97972.75;2082749;28;20070;-45
2023/04/16 04:26:13;;;;;;;;;;;;;;;17.71;56.54;97972.75;2083928;28;19940;-45
2023/04/16 04:27:14;;;;;;;;;;;;;;;17.72;56.29;97977.06;2084297;28;19933;-48
2023/04/16 04:28:15;;;;;;;;;;;;;;;17.72;56.28;97977.06;2084504;28;19937;-45
2023/04/16 04:29:16;;;;;;;;;;;;;;;17.70;56.26;97979.97;2084816;28;19929;-47
2023/04/16 04:30:17;;;;;;;;;;;;;;;17.72;56.22;97983.28;2086622;28;19967;-47
2023/04/16 04:31:18;;;;;;;;;;;;;;;17.72;56.29;97979.75;2086456;28;19932;-47
2023/04/16 04:32:19;;;;;;;;;;;;;;;17.72;56.23;97982.44;2085427;28;19933;-50
2023/04/16 04:33:20;;;;;;;;;;;;;;;17.70;56.13;97984.53;2086287;28;19928;-49
2023/04/16 04:34:20;;;;;;;;;;;;;;;17.71;56.28;97986.16;2086283;28;19924;-50
2023/04/16 04:35:22;;;;;;;;;;;;;;;17.68;56.40;97984.72;2085428;28;20018;-52
2023/04/16 04:36:23;;;;;;;;;;;;;;;17.69;56.39;97982.84;2080675;28;19937;-48
2023/04/16 04:37:24;;;;;;;;;;;;;;;17.68;56.38;97986.59;2081859;28;19932;-49
2023/04/16 04:38:24;;;;;;;;;;;;;;;17.68;56.37;97982.03;2080300;28;21182;-50
2023/04/16 04:39:27;;;;;;;;;;;;;;;17.67;56.27;97980.41;2080528;28;19978;-50
2023/04/16 04:40:28;;;;;;;;;;;;;;;17.68;56.43;97987.41;2080417;28;19970;-50
2023/04/16 04:41:29;;;;;;;;;;;;;;;17.67;56.36;97980.41;2078340;28;20957;-51
2023/04/16 04:42:30;;;;;;;;;;;;;;;17.65;56.50;97985.97;2082704;28;19975;-46
2023/04/16 04:43:31;;;;;;;;;;;;;;;17.65;56.25;97980.59;2078794;28;19933;-50
2023/04/16 04:44:31;;;;;;;;;;;;;;;17.65;56.55;97988.66;2080358;28;19932;-47
2023/04/16 04:45:33;;;;;;;;;;;;;;;17.67;56.47;97984.97;2083895;28;19994;-51
2023/04/16 04:46:33;;;;;;;;;;;;;;;17.66;56.30;97989.47;2080612;28;19933;-47
2023/04/16 04:47:35;;;;;;;;;;;;;;;17.67;56.43;97984.97;2079150;28;20260;-51
2023/04/16 04:48:35;;;;;;;;;;;;;;;17.64;56.29;97984.34;2077627;28;19974;-49
2023/04/16 04:49:37;;;;;;;;;;;;;;;17.64;56.24;97987.03;2081189;28;19994;-49
2023/04/16 04:50:37;;;;;;;;;;;;;;;17.63;56.36;97990.75;2078106;28;19997;-49
2023/04/16 04:51:38;;;;;;;;;;;;;;;17.64;56.31;97987.03;2076080;28;20236;-49
2023/04/16 04:52:39;;;;;;;;;;;;;;;17.64;56.39;97988.88;2076817;28;19986;-50
2023/04/16 04:53:40;;;;;;;;;;;;;;;17.63;56.36;97985.38;2079696;28;19933;-49
2023/04/16 04:54:42;;;;;;;;;;;;;;;17.64;56.16;97987.03;2078794;28;19932;-48
2023/04/16 04:55:44;;;;;;;;;;;;;;;17.65;56.44;97982.47;2083454;28;19981;-49
2023/04/16 04:56:44;;;;;;;;;;;;;;;17.64;56.23;97991.56;2086140;28;20361;-50
2023/04/16 04:57:46;;;;;;;;;;;;;;;17.62;56.37;97991.75;2083519;28;19933;-47
2023/04/16 04:58:48;;;;;;;;;;;;;;;17.61;56.33;97990.13;2083733;28;19932;-48
2023/04/16 04:59:49;;;;;;;;;;;;;;;17.62;56.43;97994.44;2087287;28;22314;-47
2023/04/16 05:00:50;;;;;;;;;;;;;;;17.62;56.17;97994.44;2087897;28;19932;-48
2023/04/16 05:01:51;;;;;;;;;;;;;;;17.64;56.21;97991.56;2084643;28;20462;-48
2023/04/16 05:02:52;;;;;;;;;;;;;;;17.63;56.20;97998.78;2088522;28;19974;-48
2023/04/16 05:03:53;;;;;;;;;;;;;;;17.61;56.21;97995.50;2086370;28;19928;-52
2023/04/16 05:04:53;;;;;;;;;;;;;;;17.63;56.09;98000.63;2086999;28;19925;-46
2023/04/16 05:05:55;;;;;;;;;;;;;;;17.61;56.38;97994.69;2088032;28;19978;-50
2023/04/16 05:06:55;;;;;;;;;;;;;;;17.61;56.36;98002.72;2085965;28;19935;-48
2023/04/16 05:07:57;;;;;;;;;;;;;;;17.61;56.17;98003.53;2086627;28;20391;-48
2023/04/16 05:08:57;;;;;;;;;;;;;;;17.62;56.33;98004.34;2087668;28;19928;-50
2023/04/16 05:10:00;;;;;;;;;;;;;;;17.61;56.13;98003.53;2086324;28;19924;-50
2023/04/16 05:11:01;;;;;;;;;;;;;;;17.59;56.45;98010.97;2087439;28;19932;-49
2023/04/16 05:12:03;;;;;;;;;;;;;;;17.60;56.42;98011.78;2084797;28;19925;-51
2023/04/16 05:13:03;;;;;;;;;;;;;;;17.59;56.36;98008.28;2082399;28;19968;-51
2023/04/16 05:14:04;;;;;;;;;;;;;;;17.60;56.18;98015.28;2082581;28;20003;-50
2023/04/16 05:15:06;;;;;;;;;;;;;;;17.60;56.05;98017.16;2084290;28;19993;-48
2023/04/16 05:16:07;;;;;;;;;;;;;;;17.58;56.35;98017.38;2080974;28;20011;-48
2023/04/16 05:17:09;;;;;;;;;;;;;;;17.58;56.28;98025.41;2083826;28;19981;-51
2023/04/16 05:18:11;;;;;;;;;;;;;;;17.58;56.06;98020.06;2082987;28;19928;-51
2023/04/16 05:19:11;;;;;;;;;;;;;;;17.57;56.41;98021.06;2084847;28;19989;-48